Weather Data

Pearl Creek Farm: 8878 N Farm Road 75, Walnut Grove MO 65770

<== Previous Day (Sunday 09 Apr 2017) | Next Day (Tuesday 11 Apr 2017) ==>

Summary Precipitation Data For Monday 10 April 2017

ElementValueUnits
Precipitation0"
Notes(none)
SourcePearl Creek Farm

Summary Temperature Data For Monday 10 April 2017

ElementValueUnits
High Temperature73 oF
Low Temperature50 oF
Average Temperature66 oF
High Humidity78 %
Low Humidity31 %
Average Humidity60 %
SourceSpringfield-Branson National Airport (SGF)

Detail Temperature Data For Monday 10 April 2017

Date / TimeTemp (F)RH (%)Dew Pt (F)Report Date / TimeSource
2017-04-10 00:52:00 66 73 57.0 2017-12-29 17:00:26.17417 Springfield-Branson National Airport (SGF)
2017-04-10 01:52:00 65 76 57.0 2017-12-29 17:00:26.17417 Springfield-Branson National Airport (SGF)
2017-04-10 02:52:00 66 75 58.0 2017-12-29 17:00:26.17417 Springfield-Branson National Airport (SGF)
2017-04-10 03:52:00 66 75 58.0 2017-12-29 17:00:26.17417 Springfield-Branson National Airport (SGF)
2017-04-10 04:52:00 66 78 59.0 2017-12-29 17:00:26.17417 Springfield-Branson National Airport (SGF)
2017-04-10 05:52:00 67 76 59.0 2017-12-29 17:00:26.17417 Springfield-Branson National Airport (SGF)
2017-04-10 06:52:00 68 76 60.0 2017-12-29 17:00:26.17417 Springfield-Branson National Airport (SGF)
2017-04-10 07:52:00 68 76 60.0 2017-12-29 17:00:26.17417 Springfield-Branson National Airport (SGF)
2017-04-10 08:52:00 71 71 61.0 2017-12-29 17:00:26.17417 Springfield-Branson National Airport (SGF)
2017-04-10 09:52:00 73 66 61.0 2017-12-29 17:00:26.17417 Springfield-Branson National Airport (SGF)
2017-04-10 10:52:00 72 64 59.0 2017-12-29 17:00:26.17417 Springfield-Branson National Airport (SGF)
2017-04-10 11:52:00 72 55 55.0 2017-12-29 17:00:26.17417 Springfield-Branson National Airport (SGF)
2017-04-10 12:52:00 72 52 53.0 2017-12-29 17:00:26.17417 Springfield-Branson National Airport (SGF)
2017-04-10 13:52:00 71 47 50.0 2017-12-29 17:00:26.17417 Springfield-Branson National Airport (SGF)
2017-04-10 14:52:00 71 38 44.0 2017-12-29 17:00:26.17417 Springfield-Branson National Airport (SGF)
2017-04-10 15:52:00 71 34 41.0 2017-12-29 17:00:26.17417 Springfield-Branson National Airport (SGF)
2017-04-10 16:52:00 71 31 39.0 2017-12-29 17:00:26.17417 Springfield-Branson National Airport (SGF)
2017-04-10 17:52:00 68 32 37.0 2017-12-29 17:00:26.17417 Springfield-Branson National Airport (SGF)
2017-04-10 18:52:00 60 44 38.0 2017-12-29 17:00:26.17417 Springfield-Branson National Airport (SGF)
2017-04-10 19:52:00 54 59 40.0 2017-12-29 17:00:26.17417 Springfield-Branson National Airport (SGF)
2017-04-10 20:52:00 56 51 38.0 2017-12-29 17:00:26.17417 Springfield-Branson National Airport (SGF)
2017-04-10 21:52:00 56 53 39.0 2017-12-29 17:00:26.17417 Springfield-Branson National Airport (SGF)
2017-04-10 22:52:00 54 62 41.0 2017-12-29 17:00:26.17417 Springfield-Branson National Airport (SGF)
2017-04-10 23:52:00 50 74 42.0 2017-12-29 17:00:26.17417 Springfield-Branson National Airport (SGF)

A total of 24 rows are displayed.